Time;durP1;ratioP1;P1;durP2;ratioP2;P2;SDS_P1;SDS_P2;PMS_P1;PMS_P2;Temp;Humidity;BMP_temperature;BMP_pressure;BME280_temperature;BME280_humidity;BME280_pressure;Samples;Min_cycle;Max_cycle;Signal;HPM_P1;HPM_P2
2023/04/17 00:02:41;;;;;;;6.07;2.00;;;;;;;16.75;nan;100974.75;4872265;29;20449;-91
2023/04/17 00:05:09;;;;;;;3.77;2.17;;;;;;;16.72;nan;100968.84;4887546;29;20460;-91
2023/04/17 00:08:02;;;;;;;9.47;2.57;;;;;;;16.76;nan;100981.09;4887154;29;20488;-91
2023/04/17 00:10:36;;;;;;;7.13;2.40;;;;;;;16.70;nan;100974.59;4902988;29;20830;-90
2023/04/17 00:13:05;;;;;;;5.80;2.20;;;;;;;16.72;nan;100979.91;4872184;29;20456;-90
2023/04/17 00:15:32;;;;;;;6.87;1.90;;;;;;;16.64;nan;100978.28;4872040;29;20991;-91
2023/04/17 00:18:37;;;;;;;8.87;1.97;;;;;;;16.64;nan;100980.19;4846179;29;20491;-91
2023/04/17 00:21:28;;;;;;;4.27;1.93;;;;;;;16.56;nan;100973.00;4845598;29;20460;-91
2023/04/17 00:24:06;;;;;;;14.43;2.17;;;;;;;16.50;nan;100976.69;4846405;29;20468;-90
2023/04/17 00:26:34;;;;;;;7.83;2.23;;;;;;;16.42;nan;100966.78;4844366;29;20467;-91
2023/04/17 00:29:15;;;;;;;6.60;1.73;;;;;;;16.40;nan;100966.16;4830703;29;20458;-91
2023/04/17 00:31:52;;;;;;;10.70;2.73;;;;;;;16.42;nan;100980.56;4831113;29;20848;-90
2023/04/17 00:34:22;;;;;;;7.07;2.10;;;;;;;16.36;nan;100981.47;4831000;29;20466;-91
2023/04/17 00:37:12;;;;;;;11.87;2.80;;;;;;;16.37;nan;100988.66;4816043;29;20838;-91
2023/04/17 00:39:54;;;;;;;16.03;3.23;;;;;;;16.28;nan;100978.16;4842441;29;20502;-91
2023/04/17 00:42:29;;;;;;;5.33;1.87;;;;;;;16.33;nan;100987.47;4834074;29;20460;-91
2023/04/17 00:45:20;;;;;;;13.87;1.93;;;;;;;16.30;nan;100982.38;4867655;29;20449;-90
2023/04/17 00:48:05;;;;;;;10.03;2.00;;;;;;;16.28;nan;100983.69;4886453;29;20464;-91
2023/04/17 00:50:36;;;;;;;11.43;2.43;;;;;;;16.27;nan;100982.00;4901754;29;20455;-91
2023/04/17 00:53:10;;;;;;;12.30;2.30;;;;;;;16.21;nan;100978.22;4883385;29;20461;-91
2023/04/17 00:55:53;;;;;;;14.60;2.43;;;;;;;16.17;nan;100969.53;4871486;29;20464;-91
2023/04/17 00:58:33;;;;;;;5.20;2.07;;;;;;;16.12;nan;100974.91;4871372;29;20859;-91
2023/04/17 01:01:31;;;;;;;6.60;1.80;;;;;;;16.16;nan;100986.34;4867949;29;20464;-91
2023/04/17 01:04:20;;;;;;;6.13;2.00;;;;;;;16.12;nan;100974.91;4882756;29;20454;-91
2023/04/17 01:07:15;;;;;;;12.10;2.03;;;;;;;16.07;nan;100971.13;4898349;29;20531;-91
2023/04/17 01:10:12;;;;;;;11.27;2.57;;;;;;;16.01;nan;100969.25;4882920;29;20460;-92
2023/04/17 01:13:11;;;;;;;7.20;1.70;;;;;;;15.96;nan;100963.59;4867866;29;20437;-91
2023/04/17 01:15:43;;;;;;;16.53;2.10;;;;;;;15.91;nan;100961.50;4867913;29;20465;-91
2023/04/17 01:18:32;;;;;;;7.70;1.83;;;;;;;15.85;nan;100963.22;4868034;29;20529;-92
2023/04/17 01:21:00;;;;;;;9.30;2.00;;;;;;;15.74;nan;100941.91;4882777;29;20509;-91
2023/04/17 01:23:47;;;;;;;9.40;2.80;;;;;;;15.76;nan;100963.72;4881097;29;20457;-91
2023/04/17 01:26:50;;;;;;;6.13;2.03;;;;;;;15.72;nan;100952.31;4882609;29;20453;-91
2023/04/17 01:29:23;;;;;;;8.17;2.40;;;;;;;15.68;nan;100950.22;4880982;29;20460;-91
2023/04/17 01:32:10;;;;;;;8.17;1.60;;;;;;;15.70;nan;100948.94;4867816;29;20517;-91
2023/04/17 01:38:24;;;;;;;4.67;1.80;;;;;;;15.50;nan;100934.41;4886517;29;20526;-92
2023/04/17 01:41:08;;;;;;;10.50;2.30;;;;;;;15.52;nan;100948.81;4867160;29;20458;-91
2023/04/17 01:43:41;;;;;;;15.80;2.30;;;;;;;15.42;nan;100937.41;4882895;29;20525;-91
2023/04/17 01:46:19;;;;;;;6.40;1.80;;;;;;;15.43;nan;100930.84;4867176;29;20964;-91
2023/04/17 01:49:15;;;;;;;9.97;1.90;;;;;;;15.39;nan;100932.38;4882658;29;20449;-91
2023/04/17 01:52:32;;;;;;;5.80;1.90;;;;;;;15.36;nan;100932.81;4876000;29;20458;-91
2023/04/17 01:55:16;;;;;;;8.87;2.10;;;;;;;15.30;nan;100930.91;4879399;29;20459;-90
2023/04/17 01:58:00;;;;;;;2.33;1.40;;;;;;;15.25;nan;100917.81;4863672;29;20490;-90
2023/04/17 02:00:27;;;;;;;6.63;1.80;;;;;;;15.10;nan;100909.84;4878720;29;20477;-90
2023/04/17 02:02:55;;;;;;;4.37;1.63;;;;;;;15.11;nan;100925.28;4811747;29;20456;-91
2023/04/17 02:05:45;;;;;;;10.93;2.20;;;;;;;15.12;nan;100917.88;4796917;29;20956;-91
2023/04/17 02:08:42;;;;;;;4.90;1.33;;;;;;;15.07;nan;100914.94;4802072;29;21059;-91
2023/04/17 02:15:32;;;;;;;13.67;2.00;;;;;;;14.94;nan;100913.09;4863854;29;20443;-92
2023/04/17 02:21:47;;;;;;;12.60;2.37;;;;;;;14.76;nan;100893.69;4845175;29;20423;-91
2023/04/17 02:24:15;;;;;;;6.37;1.80;;;;;;;14.77;nan;100895.38;4814955;29;20483;-91
2023/04/17 02:26:43;;;;;;;5.93;1.50;;;;;;;14.75;nan;100901.09;4825418;29;20520;-91
2023/04/17 02:29:26;;;;;;;9.53;2.33;;;;;;;14.62;nan;100883.81;4871827;29;20527;-90
2023/04/17 02:32:14;;;;;;;8.47;2.27;;;;;;;14.72;nan;100892.44;4889601;29;20523;-90
2023/04/17 02:34:44;;;;;;;5.23;2.43;;;;;;;14.67;nan;100898.59;4888577;29;20468;-91
2023/04/17 02:37:31;;;;;;;7.13;1.73;;;;;;;14.65;nan;100895.19;4874158;29;20547;-91
2023/04/17 02:40:08;;;;;;;4.30;1.60;;;;;;;14.62;nan;100900.31;4889155;29;20457;-91
2023/04/17 02:42:50;;;;;;;8.13;2.03;;;;;;;14.55;nan;100899.47;4866533;29;20810;-90
2023/04/17 02:45:25;;;;;;;6.57;2.00;;;;;;;14.48;nan;100889.34;4874327;29;20460;-91
2023/04/17 02:51:48;;;;;;;5.77;1.70;;;;;;;14.33;nan;100880.47;4921132;29;20485;-91
2023/04/17 02:54:15;;;;;;;11.80;2.40;;;;;;;14.29;nan;100878.34;4888279;29;20519;-91
2023/04/17 02:56:43;;;;;;;5.97;1.70;;;;;;;14.32;nan;100899.94;4872789;29;20477;-90
2023/04/17 02:59:12;;;;;;;5.27;1.57;;;;;;;14.26;nan;100896.13;4888636;29;20476;-90
2023/04/17 03:01:47;;;;;;;5.90;1.80;;;;;;;14.18;nan;100883.47;4889095;29;20457;-90
2023/04/17 03:04:27;;;;;;;5.30;1.90;;;;;;;14.19;nan;100881.56;4873097;29;20459;-90
2023/04/17 03:07:09;;;;;;;6.33;1.60;;;;;;;14.18;nan;100880.72;4873025;29;20559;-90
2023/04/17 03:09:52;;;;;;;4.77;1.57;;;;;;;14.20;nan;100890.66;4873226;29;20512;-91
2023/04/17 03:12:21;;;;;;;3.13;1.50;;;;;;;14.17;nan;100892.78;4888449;29;20536;-90
2023/04/17 03:14:51;;;;;;;5.13;1.83;;;;;;;14.15;nan;100894.88;4872904;29;20461;-90
2023/04/17 03:17:19;;;;;;;5.53;1.70;;;;;;;13.98;nan;100863.41;4872531;29;20473;-90
2023/04/17 03:19:48;;;;;;;5.43;1.53;;;;;;;14.02;nan;100883.06;4888070;29;20452;-89
2023/04/17 03:22:25;;;;;;;10.73;2.07;;;;;;;14.04;nan;100894.69;4873085;29;20451;-89
2023/04/17 03:24:52;;;;;;;4.23;1.30;;;;;;;13.86;nan;100873.34;4872186;29;20461;-89
2023/04/17 03:27:23;;;;;;;5.40;1.50;;;;;;;13.87;nan;100885.16;4798575;29;20460;-90
2023/04/17 03:29:53;;;;;;;4.60;1.30;;;;;;;13.86;nan;100886.22;4813452;29;20918;-90
2023/04/17 03:32:23;;;;;;;6.30;1.60;;;;;;;13.79;nan;100884.34;4813896;29;20456;-90
2023/04/17 03:34:57;;;;;;;8.90;2.20;;;;;;;13.80;nan;100880.53;4822729;29;20449;-89
2023/04/17 03:37:24;;;;;;;7.13;1.80;;;;;;;13.82;nan;100878.44;4828784;29;20490;-89
2023/04/17 03:39:52;;;;;;;6.90;1.63;;;;;;;13.82;nan;100880.34;4823264;29;20452;-90
2023/04/17 03:42:20;;;;;;;6.63;1.50;;;;;;;13.81;nan;100874.00;4811552;29;20572;-90
2023/04/17 03:44:49;;;;;;;3.00;1.30;;;;;;;13.83;nan;100874.63;4828767;29;20520;-90
2023/04/17 03:47:50;;;;;;;5.60;1.60;;;;;;;13.84;nan;100878.22;4828281;29;20565;-91
2023/04/17 03:50:37;;;;;;;7.13;1.80;;;;;;;13.79;nan;100867.03;4843360;29;20805;-91
2023/04/17 03:53:11;;;;;;;19.53;1.80;;;;;;;13.79;nan;100862.38;4870532;29;20863;-91
2023/04/17 03:56:21;;;;;;;4.70;1.33;;;;;;;13.85;nan;100876.31;4903377;29;20831;-90
2023/04/17 03:58:49;;;;;;;16.07;1.80;;;;;;;13.80;nan;100871.47;4902383;29;20496;-90
2023/04/17 04:04:50;;;;;;;2.83;1.50;;;;;;;13.83;nan;100869.13;4919434;29;20557;-91
2023/04/17 04:07:25;;;;;;;5.07;1.80;;;;;;;13.81;nan;100879.50;4872545;29;20457;-90
2023/04/17 04:10:09;;;;;;;12.33;2.57;;;;;;;13.80;nan;100874.19;4864897;29;20532;-91
2023/04/17 04:12:56;;;;;;;4.50;1.83;;;;;;;13.77;nan;100869.97;4861590;29;20453;-90
2023/04/17 04:15:42;;;;;;;11.43;1.93;;;;;;;13.74;nan;100864.91;4868905;29;20457;-90
2023/04/17 04:18:33;;;;;;;12.23;2.87;;;;;;;13.73;nan;100868.69;4883950;29;20490;-90
2023/04/17 04:21:08;;;;;;;7.73;2.07;;;;;;;13.70;nan;100863.63;4868680;29;20457;-90
2023/04/17 04:23:40;;;;;;;6.13;1.80;;;;;;;13.71;nan;100857.06;4884574;29;21027;-90
2023/04/17 04:26:26;;;;;;;4.93;1.57;;;;;;;13.72;nan;100855.16;4887512;29;20453;-90
2023/04/17 04:28:58;;;;;;;4.83;1.50;;;;;;;13.71;nan;100846.09;4885973;29;20986;-89
2023/04/17 04:31:49;;;;;;;5.13;1.90;;;;;;;13.69;nan;100859.19;4872481;29;20931;-90
2023/04/17 04:34:18;;;;;;;5.33;1.50;;;;;;;13.66;nan;100854.09;4872973;29;20452;-91
2023/04/17 04:36:48;;;;;;;3.83;1.60;;;;;;;13.60;nan;100862.38;4870929;29;20468;-90
2023/04/17 04:39:20;;;;;;;7.37;1.30;;;;;;;13.58;nan;100848.84;4887723;29;20542;-90
2023/04/17 04:41:54;;;;;;;4.97;2.07;;;;;;;13.56;nan;100844.63;4872713;29;21023;-91
2023/04/17 04:44:36;;;;;;;5.50;1.47;;;;;;;13.58;nan;100846.09;4872023;29;20940;-91
2023/04/17 04:47:12;;;;;;;5.27;1.50;;;;;;;13.54;nan;100842.06;4887249;29;20541;-90
2023/04/17 04:49:50;;;;;;;7.10;1.67;;;;;;;13.55;nan;100854.75;4871612;29;20539;-91
2023/04/17 04:52:25;;;;;;;5.90;1.90;;;;;;;13.44;nan;100850.75;4883741;29;20827;-90
2023/04/17 04:55:09;;;;;;;8.60;2.23;;;;;;;13.45;nan;100844.22;4868400;29;21027;-90
2023/04/17 04:58:22;;;;;;;6.40;1.47;;;;;;;13.41;nan;100853.06;4867799;29;20549;-89
2023/04/17 05:04:50;;;;;;;5.97;1.73;;;;;;;13.28;nan;100850.28;4901633;29;20890;-91
2023/04/17 05:07:23;;;;;;;6.70;1.93;;;;;;;13.31;nan;100856.22;4871755;29;20460;-91
2023/04/17 05:13:21;;;;;;;5.60;2.03;;;;;;;13.30;nan;100859.16;4914998;29;20458;-91
2023/04/17 05:16:04;;;;;;;4.07;1.63;;;;;;;13.33;nan;100862.34;4898583;29;20457;-90
2023/04/17 05:18:42;;;;;;;3.93;1.60;;;;;;;13.34;nan;100863.19;4885713;29;20492;-90
2023/04/17 05:21:22;;;;;;;10.13;1.67;;;;;;;13.29;nan;100854.72;4901983;29;20449;-90
2023/04/17 05:23:58;;;;;;;8.43;1.63;;;;;;;13.23;nan;100852.84;4871054;29;20460;-90
2023/04/17 05:26:27;;;;;;;6.77;1.33;;;;;;;13.24;nan;100854.53;4870641;29;20448;-91
2023/04/17 05:28:56;;;;;;;9.47;3.00;;;;;;;13.17;nan;100857.25;4870219;29;20810;-90
2023/04/17 05:32:19;;;;;;;5.30;1.80;;;;;;;13.21;nan;100885.13;4870609;29;20449;-91
2023/04/17 05:34:48;;;;;;;5.50;2.03;;;;;;;13.06;nan;100868.81;4898591;29;20453;-91
2023/04/17 05:38:11;;;;;;;5.10;1.70;;;;;;;13.11;nan;100867.13;4867468;29;20489;-91
2023/04/17 05:41:33;;;;;;;7.10;1.80;;;;;;;13.08;nan;100875.75;4897092;29;20560;-93
2023/04/17 05:44:33;;;;;;;9.20;1.70;;;;;;;13.04;nan;100884.63;4902033;29;20525;-93
2023/04/17 05:47:02;;;;;;;8.57;1.47;;;;;;;12.98;nan;100880.81;4885423;29;20827;-91
2023/04/17 05:53:07;;;;;;;9.10;1.50;;;;;;;12.89;nan;100881.22;4917926;29;20437;-90
2023/04/17 05:55:45;;;;;;;7.00;2.17;;;;;;;12.91;nan;100890.91;4870505;29;20459;-91
2023/04/17 06:10:01;;;;;;;7.30;1.50;;;;;;;12.87;nan;100886.91;4898771;29;20458;-91
2023/04/17 06:12:59;;;;;;;8.63;2.40;;;;;;;12.86;nan;100892.59;4866473;29;20969;-90
2023/04/17 06:15:27;;;;;;;11.80;2.20;;;;;;;12.76;nan;100892.97;4864346;29;20462;-91
2023/04/17 06:17:55;;;;;;;8.50;1.73;;;;;;;12.75;nan;100896.75;4833476;29;20490;-91
2023/04/17 06:20:31;;;;;;;10.43;2.07;;;;;;;12.78;nan;100901.84;4848981;29;20442;-91
2023/04/17 06:23:25;;;;;;;7.13;1.90;;;;;;;12.79;nan;100906.25;4833776;29;20969;-91
2023/04/17 06:25:52;;;;;;;6.73;1.80;;;;;;;12.71;nan;100904.53;4873897;29;20453;-90
2023/04/17 06:32:52;;;;;;;5.37;1.40;;;;;;;12.75;nan;100916.78;4880635;29;20534;-90
2023/04/17 06:35:25;;;;;;;8.20;1.67;;;;;;;12.78;nan;100913.66;4864298;29;20443;-91
2023/04/17 06:38:08;;;;;;;14.33;1.97;;;;;;;12.82;nan;100913.25;4854110;29;21003;-92
2023/04/17 06:48:04;;;;;;;24.10;2.23;;;;;;;13.03;nan;100913.13;4889751;29;21031;-91
2023/04/17 06:50:49;;;;;;;16.77;2.97;;;;;;;13.08;nan;100910.59;4866888;29;20454;-91
2023/04/17 06:53:46;;;;;;;25.97;2.63;;;;;;;13.22;nan;100914.25;4866845;29;20466;-91
2023/04/17 07:00:01;;;;;;;10.97;2.20;;;;;;;13.37;nan;100917.69;4905868;29;20516;-91
2023/04/17 07:09:51;;;;;;;129.80;7.90;;;;;;;13.70;nan;100918.56;4905147;29;20436;-91
2023/04/17 07:16:06;;;;;;;29.10;4.13;;;;;;;13.83;nan;100907.59;4909752;29;20436;-91
2023/04/17 07:22:05;;;;;;;68.10;5.03;;;;;;;14.08;nan;100910.53;4920353;29;20460;-91
2023/04/17 07:28:21;;;;;;;212.23;14.53;;;;;;;14.45;nan;100914.50;4920227;29;20428;-91
2023/04/17 07:31:07;;;;;;;92.10;8.30;;;;;;;14.63;nan;100908.31;4873007;29;20460;-91
2023/04/17 07:34:06;;;;;;;65.87;6.50;;;;;;;14.80;nan;100903.22;4888593;29;20444;-91
2023/04/17 07:36:35;;;;;;;51.87;4.97;;;;;;;14.93;nan;100900.41;4903291;29;20449;-91
2023/04/17 07:39:06;;;;;;;33.70;3.73;;;;;;;15.10;nan;100890.56;4873520;29;20499;-91
2023/04/17 07:42:07;;;;;;;27.03;3.40;;;;;;;15.39;nan;100896.56;4873797;29;20452;-91
2023/04/17 07:45:06;;;;;;;12.30;2.00;;;;;;;15.68;nan;100890.44;4888088;29;20465;-91
2023/04/17 07:47:33;;;;;;;10.87;1.67;;;;;;;15.89;nan;100881.78;4903142;29;20456;-93
2023/04/17 07:50:01;;;;;;;9.67;2.10;;;;;;;16.14;nan;100881.78;4888221;29;20516;-91
2023/04/17 07:52:31;;;;;;;6.90;1.83;;;;;;;16.38;nan;100885.53;4873130;29;20479;-91
2023/04/17 08:02:02;;;;;;;20.97;2.00;;;;;;;16.96;nan;100876.81;4919259;29;20483;-92
2023/04/17 08:05:16;;;;;;;9.20;1.50;;;;;;;17.13;nan;100872.31;4886362;29;20479;-91
2023/04/17 08:08:22;;;;;;;14.57;2.30;;;;;;;17.30;nan;100877.22;4902913;29;20449;-91
2023/04/17 08:11:09;;;;;;;26.93;2.63;;;;;;;17.35;nan;100869.88;4902205;29;20487;-91
2023/04/17 08:13:47;;;;;;;13.60;2.00;;;;;;;17.55;nan;100875.09;4880274;29;20464;-91
2023/04/17 08:16:17;;;;;;;24.30;2.73;;;;;;;17.64;nan;100868.19;4887847;29;20466;-92
2023/04/17 08:22:28;;;;;;;13.23;2.20;;;;;;;18.00;nan;100880.97;4919052;29;20460;-92
2023/04/17 08:24:56;;;;;;;18.73;2.50;;;;;;;18.07;nan;100861.50;4887470;29;20449;-92
2023/04/17 08:27:24;;;;;;;8.97;2.83;;;;;;;18.17;nan;100853.44;4872254;29;20448;-92
2023/04/17 08:29:55;;;;;;;7.07;1.90;;;;;;;18.34;nan;100861.84;4870345;29;20468;-91
2023/04/17 08:39:16;;;;;;;11.43;1.47;;;;;;;18.81;nan;100840.50;4918764;29;20548;-91
2023/04/17 08:41:49;;;;;;;8.17;2.13;;;;;;;18.98;nan;100846.94;4886736;29;20940;-92
2023/04/17 08:44:48;;;;;;;5.37;1.53;;;;;;;19.13;nan;100844.44;4872097;29;20966;-92
2023/04/17 08:47:30;;;;;;;10.50;1.90;;;;;;;19.30;nan;100839.78;4902267;29;20445;-92
2023/04/17 08:50:26;;;;;;;14.67;2.10;;;;;;;19.45;nan;100835.59;4885605;29;20453;-92
2023/04/17 08:56:45;;;;;;;11.10;1.70;;;;;;;19.69;nan;100819.69;4914830;29;20465;-91
2023/04/17 08:59:21;;;;;;;5.27;1.43;;;;;;;19.86;nan;100824.13;4870610;29;20500;-91
2023/04/17 09:09:44;;;;;;;6.03;1.87;;;;;;;20.48;nan;100823.97;4918277;29;20468;-92
2023/04/17 09:13:16;;;;;;;18.73;1.87;;;;;;;20.71;nan;100824.81;4901935;29;20457;-92
2023/04/17 09:16:09;;;;;;;10.60;2.40;;;;;;;20.92;nan;100840.63;4901208;29;21014;-92
2023/04/17 09:18:42;;;;;;;22.27;1.53;;;;;;;21.05;nan;100829.09;4886605;29;20548;-92
2023/04/17 09:21:35;;;;;;;9.30;1.20;;;;;;;21.24;nan;100827.66;4871707;29;20461;-91
2023/04/17 09:24:52;;;;;;;16.70;1.90;;;;;;;21.43;nan;100833.69;4868039;29;20446;-93
2023/04/17 09:27:32;;;;;;;5.20;1.67;;;;;;;21.64;nan;100831.94;4895535;29;20456;-92
2023/04/17 09:34:03;;;;;;;124.30;12.33;;;;;;;22.01;nan;100832.81;4859091;29;21303;-92
2023/04/17 09:36:46;;;;;;;10.43;1.20;;;;;;;22.21;nan;100831.28;4844449;29;20459;-92
2023/04/17 09:39:19;;;;;;;10.90;1.50;;;;;;;22.39;nan;100834.47;4814726;29;20492;-90
2023/04/17 09:42:05;;;;;;;9.57;1.50;;;;;;;22.58;nan;100843.19;4844398;29;20454;-91
2023/04/17 09:44:36;;;;;;;10.17;1.77;;;;;;;22.66;nan;100831.53;4829700;29;21005;-91
2023/04/17 09:50:46;;;;;;;6.77;1.10;;;;;;;22.94;nan;100823.84;4860105;29;20532;-91
2023/04/17 09:56:43;;;;;;;18.47;2.20;;;;;;;23.38;nan;100830.66;4840198;29;20500;-94
2023/04/17 10:06:47;;;;;;;8.10;1.60;;;;;;;24.04;nan;100822.34;4832318;29;20998;-93
2023/04/17 10:16:47;;;;;;;8.20;1.33;;;;;;;24.63;nan;100802.06;4830609;29;20538;-94
2023/04/17 11:31:44;;;;;;;9.03;1.40;;;;;;;27.96;nan;100783.88;4920952;29;20467;-95
2023/04/17 11:34:15;;;;;;;7.40;1.07;;;;;;;27.95;nan;100770.97;4863845;29;20515;-94
2023/04/17 11:37:01;;;;;;;5.07;1.27;;;;;;;28.12;nan;100782.44;4847209;29;20486;-94
2023/04/17 11:39:41;;;;;;;5.60;1.60;;;;;;;28.26;nan;100776.06;4849567;29;20498;-94
2023/04/17 11:45:52;;;;;;;3.90;1.07;;;;;;;28.25;nan;100780.84;4853410;29;20550;-94
2023/04/17 11:48:31;;;;;;;6.80;1.30;;;;;;;28.45;nan;100783.25;4861368;29;20462;-94
2023/04/17 11:51:09;;;;;;;8.90;1.40;;;;;;;28.54;nan;100772.09;4876281;29;20459;-94
2023/04/17 11:57:42;;;;;;;6.20;0.90;;;;;;;28.71;nan;100771.44;4901026;29;20489;-95
2023/04/17 12:00:14;;;;;;;11.33;1.93;;;;;;;28.69;nan;100749.25;4854495;29;20504;-95
2023/04/17 12:02:45;;;;;;;7.43;1.83;;;;;;;28.87;nan;100759.56;4869258;29;20797;-96
2023/04/17 12:05:18;;;;;;;8.40;1.67;;;;;;;28.86;nan;100751.47;4868807;29;20462;-95
2023/04/17 12:08:03;;;;;;;10.90;1.60;;;;;;;29.05;nan;100765.38;4856027;29;20449;-95
2023/04/17 12:10:51;;;;;;;9.93;1.77;;;;;;;28.98;nan;100737.66;4899875;29;20983;-95
2023/04/17 12:13:18;;;;;;;33.97;2.27;;;;;;;29.12;nan;100743.25;4885560;29;20457;-95
2023/04/17 12:15:51;;;;;;;15.83;1.90;;;;;;;29.16;nan;100727.38;4869072;29;20862;-96
2023/04/17 12:18:31;;;;;;;15.13;2.57;;;;;;;29.28;nan;100738.06;4868437;29;20454;-95
2023/04/17 12:21:00;;;;;;;10.60;1.83;;;;;;;29.41;nan;100740.88;4869243;29;20458;-95
2023/04/17 14:41:57;;;;;;;10.63;1.90;;;;;;;30.85;nan;100610.38;4902237;29;20442;-96
2023/04/17 14:51:39;;;;;;;9.73;1.73;;;;;;;30.68;nan;100606.72;4921715;29;20455;-95
2023/04/17 15:09:38;;;;;;;8.23;1.30;;;;;;;30.89;nan;100571.84;4919008;29;20391;-94
2023/04/17 19:40:47;;;;;;;8.93;1.80;;;;;;;22.13;nan;100558.97;4886032;29;20580;-90
2023/04/17 19:43:17;;;;;;;14.80;2.00;;;;;;;22.14;nan;100574.53;4836418;29;20521;-90
2023/04/17 19:45:48;;;;;;;19.87;2.00;;;;;;;21.99;nan;100569.72;4837542;29;20484;-90
2023/04/17 19:48:38;;;;;;;14.67;1.97;;;;;;;21.82;nan;100564.41;4840995;29;20487;-88
2023/04/17 19:51:10;;;;;;;20.80;3.10;;;;;;;21.79;nan;100576.06;4847982;29;20470;-90
2023/04/17 19:54:16;;;;;;;9.20;2.00;;;;;;;21.72;nan;100583.84;4835243;29;20466;-90
2023/04/17 19:56:47;;;;;;;21.17;2.90;;;;;;;21.59;nan;100589.88;4845395;29;20471;-90
2023/04/17 19:59:16;;;;;;;14.43;2.40;;;;;;;21.33;nan;100575.84;4845901;29;20483;-90
2023/04/17 20:01:45;;;;;;;11.03;2.87;;;;;;;21.23;nan;100580.50;4835541;29;20541;-90
2023/04/17 20:04:15;;;;;;;10.27;2.23;;;;;;;21.16;nan;100591.84;4850937;29;20466;-90
2023/04/17 20:07:23;;;;;;;8.70;2.53;;;;;;;21.07;nan;100610.13;4850799;29;20462;-91
2023/04/17 20:21:33;;;;;;;10.33;2.77;;;;;;;20.42;nan;100638.97;4824920;29;20441;-91
2023/04/17 20:24:05;;;;;;;9.07;1.70;;;;;;;20.28;nan;100629.34;4821590;29;20576;-91
2023/04/17 20:27:13;;;;;;;6.90;1.67;;;;;;;20.24;nan;100644.84;4792901;29;20457;-91
2023/04/17 20:29:47;;;;;;;10.40;1.93;;;;;;;19.96;nan;100632.03;4823481;29;20457;-90
2023/04/17 20:32:36;;;;;;;7.23;1.90;;;;;;;19.92;nan;100640.03;4793178;29;20517;-90
2023/04/17 20:43:24;;;;;;;16.33;2.03;;;;;;;19.63;nan;100658.75;4802984;29;20885;-91
2023/04/17 20:46:26;;;;;;;9.73;2.13;;;;;;;19.55;nan;100659.22;4798716;29;20459;-91
2023/04/17 20:49:29;;;;;;;12.90;1.77;;;;;;;19.42;nan;100664.25;4827611;29;20456;-91
2023/04/17 20:52:08;;;;;;;13.50;2.30;;;;;;;19.26;nan;100658.44;4813605;29;20455;-91
2023/04/17 20:55:06;;;;;;;12.20;1.90;;;;;;;19.18;nan;100671.91;4813877;29;20471;-92
2023/04/17 20:58:03;;;;;;;16.63;2.30;;;;;;;19.11;nan;100674.84;4828115;29;20808;-92
2023/04/17 21:00:39;;;;;;;12.00;2.07;;;;;;;19.00;nan;100666.63;4827200;29;20503;-92
2023/04/17 21:03:36;;;;;;;6.00;1.33;;;;;;;18.94;nan;100685.06;4801642;29;20465;-92
2023/04/17 21:06:30;;;;;;;4.57;1.90;;;;;;;18.82;nan;100676.00;4827590;29;20479;-92
2023/04/17 21:09:26;;;;;;;8.47;1.80;;;;;;;18.62;nan;100660.72;4844639;29;20480;-91
2023/04/17 21:12:07;;;;;;;22.30;2.60;;;;;;;18.55;nan;100671.06;4841819;29;20524;-91
2023/04/17 21:14:36;;;;;;;5.20;2.33;;;;;;;18.40;nan;100661.63;4813154;29;20467;-91
2023/04/17 21:17:10;;;;;;;12.33;1.83;;;;;;;18.34;nan;100663.44;4830445;29;20463;-92
2023/04/17 21:19:39;;;;;;;10.07;1.63;;;;;;;18.25;nan;100664.94;4829867;29;20478;-91
2023/04/17 21:22:09;;;;;;;11.57;1.77;;;;;;;18.20;nan;100676.75;4823816;29;20467;-90
2023/04/17 21:24:49;;;;;;;9.50;2.30;;;;;;;18.12;nan;100688.19;4832326;29;20468;-91
2023/04/17 21:27:27;;;;;;;6.93;1.60;;;;;;;18.00;nan;100678.25;4812916;29;20476;-91
2023/04/17 21:30:19;;;;;;;11.40;2.03;;;;;;;17.95;nan;100674.28;4836014;29;20451;-91
2023/04/17 21:33:05;;;;;;;6.37;1.37;;;;;;;17.87;nan;100666.38;4837801;29;20451;-91
2023/04/17 21:35:37;;;;;;;9.50;2.00;;;;;;;17.90;nan;100674.16;4824987;29;20471;-91
2023/04/17 21:41:04;;;;;;;7.27;1.60;;;;;;;17.77;nan;100670.84;4852099;29;20499;-91
2023/04/17 21:44:22;;;;;;;4.07;1.27;;;;;;;17.73;nan;100673.22;4846681;29;20472;-90
2023/04/17 21:47:23;;;;;;;9.70;1.73;;;;;;;17.70;nan;100673.75;4859118;29;20464;-90
2023/04/17 21:50:00;;;;;;;9.47;1.87;;;;;;;17.66;nan;100669.78;4843218;29;20469;-91
2023/04/17 21:52:28;;;;;;;7.97;1.60;;;;;;;17.59;nan;100672.63;4847605;29;20473;-91
2023/04/17 21:55:01;;;;;;;5.53;1.70;;;;;;;17.47;nan;100652.47;4830828;29;20463;-90
2023/04/17 21:57:31;;;;;;;18.50;1.73;;;;;;;17.39;nan;100657.50;4845472;29;20950;-91
2023/04/17 22:00:01;;;;;;;9.60;1.77;;;;;;;17.30;nan;100657.03;4860195;29;20487;-89
2023/04/17 22:02:30;;;;;;;6.93;1.47;;;;;;;17.25;nan;100668.81;4844290;29;20466;-90
2023/04/17 22:05:12;;;;;;;6.90;1.83;;;;;;;17.20;nan;100667.81;4828558;29;20456;-90
2023/04/17 22:07:49;;;;;;;11.27;2.27;;;;;;;17.14;nan;100658.56;4876068;29;20459;-90
2023/04/17 22:10:32;;;;;;;8.20;1.87;;;;;;;17.07;nan;100657.88;4815181;29;20815;-90
2023/04/17 22:13:14;;;;;;;7.30;1.53;;;;;;;17.03;nan;100651.13;4859045;29;20873;-90
2023/04/17 22:15:46;;;;;;;16.20;2.40;;;;;;;16.99;nan;100672.00;4844758;29;20460;-90
2023/04/17 22:18:16;;;;;;;14.33;1.87;;;;;;;16.92;nan;100665.78;4863496;29;20458;-89
2023/04/17 22:21:01;;;;;;;6.30;1.83;;;;;;;16.78;nan;100647.72;4832575;29;20482;-89
2023/04/17 22:23:31;;;;;;;8.70;1.67;;;;;;;16.81;nan;100650.84;4839349;29;20459;-90
2023/04/17 22:26:11;;;;;;;11.67;1.43;;;;;;;16.74;nan;100647.34;4845253;29;20451;-91
2023/04/17 22:28:44;;;;;;;14.30;2.00;;;;;;;16.70;nan;100650.84;4844756;29;20524;-91
2023/04/17 22:31:25;;;;;;;12.43;2.40;;;;;;;16.68;nan;100650.22;4833141;29;20463;-90
2023/04/17 22:33:57;;;;;;;16.43;2.00;;;;;;;16.66;nan;100644.94;4833612;29;20474;-90
2023/04/17 22:36:29;;;;;;;6.47;1.70;;;;;;;16.58;nan;100657.13;4869309;29;20445;-90
2023/04/17 22:39:20;;;;;;;10.47;1.97;;;;;;;16.49;nan;100650.28;4880153;29;20502;-91
2023/04/17 22:42:37;;;;;;;11.07;1.77;;;;;;;16.51;nan;100648.13;4835958;29;20529;-91
2023/04/17 22:45:07;;;;;;;5.53;1.70;;;;;;;16.44;nan;100658.41;4879606;29;20466;-91
2023/04/17 22:47:39;;;;;;;8.93;2.07;;;;;;;16.42;nan;100649.50;4850299;29;20470;-91
2023/04/17 22:50:14;;;;;;;10.90;2.43;;;;;;;16.32;nan;100643.72;4863242;29;20579;-91
2023/04/17 22:52:46;;;;;;;11.07;1.83;;;;;;;16.24;nan;100642.13;4844220;29;20466;-91
2023/04/17 22:55:26;;;;;;;9.60;2.07;;;;;;;16.16;nan;100638.88;4852076;29;20467;-90
2023/04/17 22:58:06;;;;;;;11.77;2.03;;;;;;;16.11;nan;100639.56;4836408;29;20459;-90
2023/04/17 23:00:35;;;;;;;10.40;2.07;;;;;;;16.03;nan;100644.56;4879643;29;20509;-90
2023/04/17 23:03:05;;;;;;;12.00;3.37;;;;;;;15.94;nan;100637.69;4837385;29;20514;-91
2023/04/17 23:05:52;;;;;;;8.20;2.40;;;;;;;15.94;nan;100643.19;4836535;29;20460;-91
2023/04/17 23:08:25;;;;;;;9.73;1.70;;;;;;;15.86;nan;100623.13;4867427;29;20463;-91
2023/04/17 23:11:09;;;;;;;13.80;2.43;;;;;;;15.82;nan;100624.66;4850799;29;20463;-91
2023/04/17 23:13:44;;;;;;;8.67;2.50;;;;;;;15.77;nan;100624.53;4841367;29;20965;-91
2023/04/17 23:16:20;;;;;;;8.60;2.07;;;;;;;15.71;nan;100625.44;4836604;29;20463;-91
2023/04/17 23:18:51;;;;;;;17.67;2.30;;;;;;;15.72;nan;100626.28;4847574;29;20495;-89
2023/04/17 23:21:21;;;;;;;15.90;3.27;;;;;;;15.64;nan;100624.69;4853764;29;20496;-90
2023/04/17 23:23:53;;;;;;;13.50;2.80;;;;;;;15.57;nan;100621.19;4865896;29;20476;-88
2023/04/17 23:26:31;;;;;;;9.37;2.10;;;;;;;15.55;nan;100620.53;4868707;29;20454;-95
2023/04/17 23:29:13;;;;;;;15.27;2.23;;;;;;;15.43;nan;100611.31;4859916;29;20450;-91
2023/04/17 23:32:00;;;;;;;8.00;2.67;;;;;;;15.51;nan;100635.84;4851492;29;20461;-92
2023/04/17 23:34:43;;;;;;;11.47;2.33;;;;;;;15.46;nan;100627.41;4853244;29;20460;-90
2023/04/17 23:37:11;;;;;;;11.73;2.30;;;;;;;15.39;nan;100633.00;4878345;29;20501;-93
2023/04/17 23:44:28;;;;;;;16.87;2.50;;;;;;;15.33;nan;100628.41;4863671;29;20496;-95
2023/04/17 23:46:57;;;;;;;12.00;2.33;;;;;;;15.23;nan;100621.72;4853640;29;20486;-86